Descanso, CA

1:55 PM PST on February 06, 2016 (GMT -0800)
Burrell Valley | | Change Station
CLOSE
Current Station
Personal Weather Station
Location: Descanso, CA
Elevation: 3576 ft
Nearby Weather Stations
Active Advisory: High Wind Watch

Elev 3576 ft 32.88 °N, 116.63 °W | Updated 9 seconds ago

Clear
Clear
61.5 °F
Feels Like 61.5 °F
N
15.0
Wind Variable Wind from North
Gusts 27.0 mph

Today
High -- | Low -- °F
--% Chance of Precip.
Yesterday
High -- | Low -- °F
Precip. -- in
Pressure 30.11 in
Visibility -9999.0 miles
Clouds
Dew Point 14 °F
Humidity 15%
Rainfall 0.00 in
Snow Depth Not available.
6:38 AM 5:23 PM
Waning Crescent, 4% visible
METAR KCZZ 062152Z AUTO 07025G33KT 17/M08 A3016 RMK AO1 PK WND 06033/2152 SLP196 T01721078
Pressure 30.11 in
Visibility -9999.0 miles
Clouds
Dew Point 14 °F
Humidity 15%
Rainfall 0.00 in
Snow Depth Not available.
6:38 AM 5:23 PM
Waning Crescent, 4% visible
METAR KCZZ 062152Z AUTO 07025G33KT 17/M08 A3016 RMK AO1 PK WND 06033/2152 SLP196 T01721078

10-Day Weather Forecast

Almanac

Astronomy

Feb. 06, 2016 Rise Set
Actual Time
Civil Twilight
Nautical Twilight
Astronomical Twilight
Moon
Length of Visible Light
Length of Day
Tomorrow will be .
, % of the Moon is Illuminated

Today's Extremes

State Highs State Lows

Community

WunderPhotos

Upload Photos

1,891,051 photos uploaded!

WunderBlog® & News

Nearby

Air Quality

  Air Quality AQ Index Pollutant
Not available.

Snow Depth

Station Depth Elevation

Earthquake Activity

City Distance Mag. Time & Date
Minimum magnitude displayed is 2.5.

Coastal Water Temperatures

Place Temperature

Stations

Nearby Weather Stations

Station Location Temp. Windchill Dew Point Humidity Wind Precip. Elev Updated Type
                   

Watches & Warnings

High Wind Watch
Issued: 12:59 PM PST Feb. 6, 2016 – National Weather Service

... High wind watch in effect from Sunday afternoon through Monday
afternoon...

The National Weather Service in San Diego has issued a high wind
watch... which is in effect from Sunday afternoon through Monday
afternoon.

* Winds... east to northeast 30 to 40 mph with gusts 50 to 65 mph.

* Timing... winds increasing through the day on Sunday... peaking
Sunday night into Monday morning... then weakening into Tuesday.

* Location... along the coastal mountain slopes and foothills and
below favored passes and canyons

* visibility... locally reduced in blowing dust

* impacts... strong cross winds will be a potential hazard for high
profile vehicles. Broken tree limbs and debris on roadways .

* Outlook... winds of advisory strength may develop earlier on
Sunday in some wind-prone areas and continue into Tuesday
morning.

Precautionary/preparedness actions...

A high wind watch means there is the potential for a hazardous
high wind event. Sustained winds of at least 40 mph... or gusts of
58 mph or stronger may occur. Continue to monitor the latest
forecasts.



Jad